Terminal Aerodrome Forecast
Issued by NWS

Home | Current Version | Previous Version | Text Only | Print | Product List | Glossary On
Versions: 1 2 3 4 5 6 7 8 9 10 11 12 13 14 15 16 17 18
000
FTUS44 KLZK 311700
TAFLLQ
TAF
KLLQ 311720Z 3118/0118 35012G20KT P6SM SCT040
      TEMPO 3118/3122 BKN040
     FM010000 34006KT P6SM SKC
     FM010200 VRB03KT P6SM SKC=

USA.gov is the U.S. government's official web portal to all federal, state and local government web resources and services.